Terminal Aerodrome Forecast
Issued by NWS

Home | Current Version | Previous Version | Text Only | Print | Product List | Glossary On
Versions: 1 2 3 4 5 6 7 8 9 10 11 12
987
FTUS45 KABQ 201120
TAFTCC
TAF
KTCC 201120Z 2012/2112 22013KT P6SM BKN110
     FM201500 22015G25KT P6SM FEW100
     FM201800 22020G30KT P6SM FEW070
     FM210100 21012KT P6SM SKC=

USA.gov is the U.S. government's official web portal to all federal, state and local government web resources and services.